createdAt,value
2018-09-30T00:06:18.220Z,18.4
2018-09-30T00:23:03.707Z,18.4
2018-09-30T00:39:47.768Z,18.4
2018-09-30T00:56:32.420Z,18.4
2018-09-30T01:13:17.172Z,18.4
2018-09-30T01:30:01.545Z,18.1
2018-09-30T01:46:46.580Z,18.1
2018-09-30T02:03:30.301Z,18.1
2018-09-30T02:20:14.588Z,18.1
2018-09-30T02:36:58.827Z,18.1
2018-09-30T02:53:43.031Z,18.1
2018-09-30T03:10:27.130Z,18.1
2018-09-30T03:27:11.169Z,17.8
2018-09-30T03:43:55.267Z,17.8
2018-09-30T04:00:39.202Z,17.8
2018-09-30T04:17:23.784Z,17.8
2018-09-30T04:34:07.141Z,17.8
2018-09-30T04:50:50.687Z,17.8
2018-09-30T05:07:34.476Z,17.8
2018-09-30T05:24:18.315Z,17.8
2018-09-30T05:41:02.161Z,17.8
2018-09-30T05:57:46.189Z,17.8
2018-09-30T06:14:30.216Z,17.8
2018-09-30T06:31:13.435Z,17.8
2018-09-30T06:47:57.271Z,17.8
2018-09-30T07:04:41.258Z,17.8
2018-09-30T07:21:25.255Z,18.1
2018-09-30T07:38:09.863Z,18.1
2018-09-30T07:54:54.468Z,18.4
2018-09-30T08:11:39.128Z,18.4
2018-09-30T08:28:23.870Z,18.4
2018-09-30T08:45:08.820Z,18.7
2018-09-30T09:01:54.015Z,18.7
2018-09-30T09:18:40.308Z,19.0
2018-09-30T09:35:25.198Z,19.4
2018-09-30T09:52:11.047Z,19.7
2018-09-30T10:08:57.329Z,19.7
2018-09-30T10:25:44.129Z,20.0
2018-09-30T10:42:30.780Z,20.3
2018-09-30T10:59:17.720Z,20.6
2018-09-30T11:16:05.557Z,21.0
2018-09-30T11:32:53.324Z,21.0
2018-09-30T11:49:41.145Z,21.3
2018-09-30T12:03:07.701Z,21.6
2018-09-30T12:19:56.246Z,21.6
2018-09-30T12:36:44.881Z,21.6
2018-09-30T12:53:33.544Z,21.6
2018-09-30T13:10:22.048Z,21.6
2018-09-30T13:27:10.690Z,21.6
2018-09-30T13:43:59.256Z,21.6
2018-09-30T14:00:48.024Z,21.6
2018-09-30T14:17:36.146Z,21.6
2018-09-30T14:34:24.411Z,21.3
2018-09-30T14:51:12.691Z,21.3
2018-09-30T15:08:01.401Z,21.3
2018-09-30T15:24:48.841Z,21.0
2018-09-30T15:41:36.779Z,21.0
2018-09-30T15:58:24.544Z,21.0
2018-09-30T16:15:12.938Z,20.6
2018-09-30T16:31:59.891Z,20.6
2018-09-30T16:48:47.658Z,20.6
2018-09-30T17:05:35.267Z,20.6
2018-09-30T17:22:23.491Z,20.6
2018-09-30T17:39:10.530Z,20.6
2018-09-30T17:55:58.091Z,20.6
2018-09-30T18:12:45.746Z,20.6
2018-09-30T18:29:33.467Z,20.3
2018-09-30T18:46:22.600Z,20.3
2018-09-30T19:03:09.204Z,20.3
2018-09-30T19:19:55.471Z,20.3
2018-09-30T19:36:41.368Z,20.3
2018-09-30T19:53:27.672Z,20.3
2018-09-30T20:10:14.931Z,20.3
2018-09-30T20:27:01.707Z,20.3
2018-09-30T20:43:47.725Z,20.3
2018-09-30T21:00:34.315Z,20.0
2018-09-30T21:17:20.756Z,20.0
2018-09-30T21:34:07.220Z,20.0
2018-09-30T21:50:53.894Z,20.0
2018-09-30T22:07:41.026Z,20.0
2018-09-30T22:24:26.823Z,20.0
2018-09-30T22:41:13.116Z,19.7
2018-09-30T22:57:59.988Z,19.7
2018-09-30T23:14:46.076Z,19.7
2018-09-30T23:31:31.967Z,19.4
2018-09-30T23:48:17.332Z,19.4
